sensor_id;sensor_type;location;lat;lon;timestamp;pressure;altitude;pressure_sealevel;temperature;humidity
75438;BME280;64015;49.392;15.582;2023-12-20T00:00:21;95366.16;;;5.48;53.88
75438;BME280;64015;49.392;15.582;2023-12-20T00:03:07;95353.75;;;5.38;53.82
75438;BME280;64015;49.392;15.582;2023-12-20T00:05:33;95353.50;;;5.40;53.63
75438;BME280;64015;49.392;15.582;2023-12-20T00:08:00;95328.81;;;5.31;54.20
75438;BME280;64015;49.392;15.582;2023-12-20T00:10:26;95348.78;;;5.37;54.39
75438;BME280;64015;49.392;15.582;2023-12-20T00:12:51;95346.19;;;5.42;54.19
75438;BME280;64015;49.392;15.582;2023-12-20T00:15:17;95329.38;;;5.33;54.60
75438;BME280;64015;49.392;15.582;2023-12-20T00:17:43;95349.94;;;5.46;54.77
75438;BME280;64015;49.392;15.582;2023-12-20T00:20:09;95324.72;;;5.40;54.91
75438;BME280;64015;49.392;15.582;2023-12-20T00:22:35;95328.44;;;5.44;55.11
75438;BME280;64015;49.392;15.582;2023-12-20T00:25:01;95328.50;;;5.49;54.47
75438;BME280;64015;49.392;15.582;2023-12-20T00:27:27;95321.75;;;5.53;54.92
75438;BME280;64015;49.392;15.582;2023-12-20T00:29:54;95329.94;;;5.61;54.31
75438;BME280;64015;49.392;15.582;2023-12-20T00:32:20;95320.31;;;5.67;53.89
75438;BME280;64015;49.392;15.582;2023-12-20T00:34:46;95299.72;;;5.49;54.17
75438;BME280;64015;49.392;15.582;2023-12-20T00:37:11;95305.84;;;5.59;54.18
75438;BME280;64015;49.392;15.582;2023-12-20T00:39:37;95308.94;;;5.56;53.72
75438;BME280;64015;49.392;15.582;2023-12-20T00:42:03;95305.38;;;5.62;53.35
75438;BME280;64015;49.392;15.582;2023-12-20T00:44:29;95335.66;;;5.85;51.99
75438;BME280;64015;49.392;15.582;2023-12-20T00:46:55;95315.72;;;5.79;52.39
75438;BME280;64015;49.392;15.582;2023-12-20T00:49:21;95312.56;;;5.77;52.40
75438;BME280;64015;49.392;15.582;2023-12-20T00:51:46;95305.03;;;5.86;52.54
75438;BME280;64015;49.392;15.582;2023-12-20T00:54:13;95304.25;;;5.85;52.55
75438;BME280;64015;49.392;15.582;2023-12-20T00:56:39;95306.41;;;5.88;52.42
75438;BME280;64015;49.392;15.582;2023-12-20T00:59:05;95309.06;;;5.93;52.54
75438;BME280;64015;49.392;15.582;2023-12-20T01:01:30;95303.47;;;5.85;52.51
75438;BME280;64015;49.392;15.582;2023-12-20T01:03:58;95298.69;;;5.77;53.25
75438;BME280;64015;49.392;15.582;2023-12-20T01:06:25;95291.34;;;5.74;53.95
75438;BME280;64015;49.392;15.582;2023-12-20T01:08:50;95299.47;;;5.77;53.10
75438;BME280;64015;49.392;15.582;2023-12-20T01:11:16;95304.63;;;5.94;52.79
75438;BME280;64015;49.392;15.582;2023-12-20T01:13:42;95309.03;;;5.88;53.37
75438;BME280;64015;49.392;15.582;2023-12-20T01:16:10;95305.84;;;5.86;54.58
75438;BME280;64015;49.392;15.582;2023-12-20T01:18:37;95302.00;;;5.94;55.18
75438;BME280;64015;49.392;15.582;2023-12-20T01:21:03;95308.53;;;5.91;56.50
75438;BME280;64015;49.392;15.582;2023-12-20T01:23:29;95301.63;;;5.85;59.01
75438;BME280;64015;49.392;15.582;2023-12-20T01:25:55;95289.84;;;5.83;61.69
75438;BME280;64015;49.392;15.582;2023-12-20T01:28:21;95283.72;;;5.72;63.40
75438;BME280;64015;49.392;15.582;2023-12-20T01:30:46;95268.94;;;5.56;65.56
75438;BME280;64015;49.392;15.582;2023-12-20T01:33:12;95295.03;;;5.51;67.86
75438;BME280;64015;49.392;15.582;2023-12-20T01:35:38;95265.56;;;5.34;70.24
75438;BME280;64015;49.392;15.582;2023-12-20T01:38:04;95286.50;;;5.34;71.09
75438;BME280;64015;49.392;15.582;2023-12-20T01:40:30;95299.56;;;5.34;73.94
75438;BME280;64015;49.392;15.582;2023-12-20T01:43:00;95273.97;;;5.14;74.08
75438;BME280;64015;49.392;15.582;2023-12-20T01:45:26;95294.97;;;5.19;76.99
75438;BME280;64015;49.392;15.582;2023-12-20T01:47:53;95270.53;;;5.08;79.14
75438;BME280;64015;49.392;15.582;2023-12-20T01:50:20;95288.53;;;5.05;81.58
75438;BME280;64015;49.392;15.582;2023-12-20T01:52:46;95278.91;;;4.88;85.67
75438;BME280;64015;49.392;15.582;2023-12-20T01:55:12;95257.09;;;4.78;89.02
75438;BME280;64015;49.392;15.582;2023-12-20T01:57:41;95262.00;;;4.74;96.30
75438;BME280;64015;49.392;15.582;2023-12-20T02:00:09;95248.53;;;4.61;100.00
75438;BME280;64015;49.392;15.582;2023-12-20T02:02:39;95256.66;;;4.64;100.00
75438;BME280;64015;49.392;15.582;2023-12-20T02:05:08;95246.38;;;4.58;100.00
75438;BME280;64015;49.392;15.582;2023-12-20T02:07:34;95253.00;;;4.65;100.00
75438;BME280;64015;49.392;15.582;2023-12-20T02:10:01;95235.16;;;4.57;100.00
75438;BME280;64015;49.392;15.582;2023-12-20T02:12:27;95243.34;;;4.66;100.00
75438;BME280;64015;49.392;15.582;2023-12-20T02:25:25;95232.59;;;4.84;100.00
75438;BME280;64015;49.392;15.582;2023-12-20T02:28:11;95233.63;;;4.83;100.00
75438;BME280;64015;49.392;15.582;2023-12-20T02:30:37;95237.22;;;4.99;100.00
75438;BME280;64015;49.392;15.582;2023-12-20T02:33:21;95239.88;;;5.04;100.00
75438;BME280;64015;49.392;15.582;2023-12-20T02:35:47;95222.25;;;4.94;100.00
75438;BME280;64015;49.392;15.582;2023-12-20T02:38:13;95224.16;;;4.99;100.00
75438;BME280;64015;49.392;15.582;2023-12-20T02:40:39;95226.53;;;5.00;100.00
75438;BME280;64015;49.392;15.582;2023-12-20T02:43:04;95213.88;;;4.92;100.00
75438;BME280;64015;49.392;15.582;2023-12-20T02:45:30;95202.59;;;4.86;100.00
75438;BME280;64015;49.392;15.582;2023-12-20T02:47:56;95217.22;;;4.87;100.00
75438;BME280;64015;49.392;15.582;2023-12-20T02:50:22;95213.34;;;4.90;100.00
75438;BME280;64015;49.392;15.582;2023-12-20T02:52:48;95194.69;;;4.81;100.00
75438;BME280;64015;49.392;15.582;2023-12-20T02:55:14;95205.50;;;4.90;100.00
75438;BME280;64015;49.392;15.582;2023-12-20T02:57:39;95215.97;;;4.90;100.00
75438;BME280;64015;49.392;15.582;2023-12-20T03:00:09;95221.97;;;4.91;100.00
75438;BME280;64015;49.392;15.582;2023-12-20T03:02:36;95231.94;;;4.94;100.00
75438;BME280;64015;49.392;15.582;2023-12-20T03:05:03;95205.41;;;4.80;100.00
75438;BME280;64015;49.392;15.582;2023-12-20T03:07:28;95231.09;;;4.88;100.00
75438;BME280;64015;49.392;15.582;2023-12-20T03:09:54;95213.47;;;4.78;100.00
75438;BME280;64015;49.392;15.582;2023-12-20T03:12:20;95210.31;;;4.76;100.00
75438;BME280;64015;49.392;15.582;2023-12-20T03:14:47;95216.75;;;4.69;100.00
75438;BME280;64015;49.392;15.582;2023-12-20T03:17:13;95208.75;;;4.54;100.00
75438;BME280;64015;49.392;15.582;2023-12-20T03:19:39;95207.16;;;4.53;100.00
75438;BME280;64015;49.392;15.582;2023-12-20T03:22:04;95237.22;;;4.55;100.00
75438;BME280;64015;49.392;15.582;2023-12-20T03:24:30;95211.88;;;4.34;100.00
75438;BME280;64015;49.392;15.582;2023-12-20T03:26:56;95244.53;;;4.36;100.00
75438;BME280;64015;49.392;15.582;2023-12-20T03:29:25;95229.22;;;4.23;100.00
75438;BME280;64015;49.392;15.582;2023-12-20T03:31:50;95219.09;;;4.10;100.00
75438;BME280;64015;49.392;15.582;2023-12-20T03:34:16;95232.25;;;4.15;100.00
75438;BME280;64015;49.392;15.582;2023-12-20T03:36:42;95221.09;;;4.03;100.00
75438;BME280;64015;49.392;15.582;2023-12-20T03:39:07;95214.06;;;4.03;100.00
75438;BME280;64015;49.392;15.582;2023-12-20T03:41:35;95223.00;;;4.07;100.00
75438;BME280;64015;49.392;15.582;2023-12-20T03:44:01;95200.63;;;3.95;100.00
75438;BME280;64015;49.392;15.582;2023-12-20T03:46:26;95208.69;;;3.93;100.00
75438;BME280;64015;49.392;15.582;2023-12-20T03:48:52;95213.69;;;3.95;100.00
75438;BME280;64015;49.392;15.582;2023-12-20T03:51:18;95200.88;;;3.93;100.00
75438;BME280;64015;49.392;15.582;2023-12-20T04:01:11;95200.03;;;3.88;100.00
75438;BME280;64015;49.392;15.582;2023-12-20T04:03:38;95211.25;;;3.88;100.00
75438;BME280;64015;49.392;15.582;2023-12-20T04:06:05;95202.53;;;3.83;100.00
75438;BME280;64015;49.392;15.582;2023-12-20T04:08:31;95213.06;;;3.88;100.00
75438;BME280;64015;49.392;15.582;2023-12-20T04:10:57;95225.38;;;3.92;100.00
75438;BME280;64015;49.392;15.582;2023-12-20T04:13:23;95205.63;;;3.80;100.00
75438;BME280;64015;49.392;15.582;2023-12-20T04:15:48;95230.81;;;3.91;100.00
75438;BME280;64015;49.392;15.582;2023-12-20T04:18:16;95201.97;;;3.81;100.00
75438;BME280;64015;49.392;15.582;2023-12-20T04:20:42;95223.00;;;3.91;100.00
75438;BME280;64015;49.392;15.582;2023-12-20T04:23:08;95200.41;;;3.80;100.00
75438;BME280;64015;49.392;15.582;2023-12-20T04:25:33;95227.97;;;3.92;100.00
75438;BME280;64015;49.392;15.582;2023-12-20T04:27:59;95205.69;;;3.85;100.00
75438;BME280;64015;49.392;15.582;2023-12-20T04:30:24;95214.00;;;3.82;100.00
75438;BME280;64015;49.392;15.582;2023-12-20T04:32:50;95200.88;;;3.77;100.00
75438;BME280;64015;49.392;15.582;2023-12-20T04:35:16;95213.84;;;3.88;100.00
75438;BME280;64015;49.392;15.582;2023-12-20T04:37:42;95209.28;;;3.79;100.00
75438;BME280;64015;49.392;15.582;2023-12-20T04:40:07;95221.13;;;3.86;100.00
75438;BME280;64015;49.392;15.582;2023-12-20T04:42:33;95215.50;;;3.78;100.00
75438;BME280;64015;49.392;15.582;2023-12-20T04:44:59;95211.38;;;3.82;100.00
75438;BME280;64015;49.392;15.582;2023-12-20T04:47:25;95224.75;;;3.85;100.00
75438;BME280;64015;49.392;15.582;2023-12-20T04:49:51;95203.41;;;3.71;100.00
75438;BME280;64015;49.392;15.582;2023-12-20T04:52:16;95209.41;;;3.72;100.00
75438;BME280;64015;49.392;15.582;2023-12-20T04:54:42;95195.28;;;3.68;100.00
75438;BME280;64015;49.392;15.582;2023-12-20T04:57:08;95201.28;;;3.68;100.00
75438;BME280;64015;49.392;15.582;2023-12-20T04:59:33;95220.16;;;3.75;100.00
75438;BME280;64015;49.392;15.582;2023-12-20T05:01:59;95197.09;;;3.67;100.00
75438;BME280;64015;49.392;15.582;2023-12-20T05:04:25;95216.16;;;3.68;100.00
75438;BME280;64015;49.392;15.582;2023-12-20T05:06:51;95206.97;;;3.65;100.00
75438;BME280;64015;49.392;15.582;2023-12-20T05:09:17;95211.56;;;3.58;100.00
75438;BME280;64015;49.392;15.582;2023-12-20T05:11:43;95205.38;;;3.64;100.00
75438;BME280;64015;49.392;15.582;2023-12-20T05:14:09;95222.38;;;3.67;100.00
75438;BME280;64015;49.392;15.582;2023-12-20T05:16:34;95184.69;;;3.58;100.00
75438;BME280;64015;49.392;15.582;2023-12-20T05:19:00;95213.84;;;3.71;100.00
75438;BME280;64015;49.392;15.582;2023-12-20T05:21:27;95227.19;;;3.75;100.00
75438;BME280;64015;49.392;15.582;2023-12-20T05:23:53;95219.00;;;3.66;100.00
75438;BME280;64015;49.392;15.582;2023-12-20T05:26:19;95213.84;;;3.71;100.00
75438;BME280;64015;49.392;15.582;2023-12-20T05:28:44;95201.28;;;3.68;100.00
75438;BME280;64015;49.392;15.582;2023-12-20T05:31:10;95225.16;;;3.77;100.00
75438;BME280;64015;49.392;15.582;2023-12-20T05:33:35;95206.97;;;3.65;100.00
75438;BME280;64015;49.392;15.582;2023-12-20T05:36:01;95225.00;;;3.67;100.00
75438;BME280;64015;49.392;15.582;2023-12-20T05:38:27;95234.81;;;3.77;100.00
75438;BME280;64015;49.392;15.582;2023-12-20T05:40:53;95240.81;;;3.77;100.00
75438;BME280;64015;49.392;15.582;2023-12-20T05:43:18;95195.19;;;3.63;100.00
75438;BME280;64015;49.392;15.582;2023-12-20T05:45:58;95210.59;;;3.64;100.00
75438;BME280;64015;49.392;15.582;2023-12-20T05:48:41;95225.38;;;3.75;100.00
75438;BME280;64015;49.392;15.582;2023-12-20T05:54:48;95218.44;;;3.64;100.00
75438;BME280;64015;49.392;15.582;2023-12-20T05:57:14;95208.94;;;3.58;100.00
75438;BME280;64015;49.392;15.582;2023-12-20T05:59:39;95216.53;;;3.60;100.00
75438;BME280;64015;49.392;15.582;2023-12-20T06:02:11;95217.69;;;3.52;100.00
75438;BME280;64015;49.392;15.582;2023-12-20T06:04:37;95218.50;;;3.53;100.00
75438;BME280;64015;49.392;15.582;2023-12-20T06:07:03;95217.41;;;3.49;100.00
75438;BME280;64015;49.392;15.582;2023-12-20T06:09:28;95225.44;;;3.47;100.00
75438;BME280;64015;49.392;15.582;2023-12-20T06:11:54;95246.63;;;3.51;100.00
75438;BME280;64015;49.392;15.582;2023-12-20T06:14:20;95230.59;;;3.42;100.00
75438;BME280;64015;49.392;15.582;2023-12-20T06:16:46;95226.41;;;3.41;100.00
75438;BME280;64015;49.392;15.582;2023-12-20T06:19:15;95253.09;;;3.48;100.00
75438;BME280;64015;49.392;15.582;2023-12-20T06:21:41;95230.31;;;3.27;100.00
75438;BME280;64015;49.392;15.582;2023-12-20T06:24:06;95230.19;;;3.33;100.00
75438;BME280;64015;49.392;15.582;2023-12-20T06:26:35;95255.47;;;3.33;100.00
75438;BME280;64015;49.392;15.582;2023-12-20T06:29:01;95221.28;;;3.18;100.00
75438;BME280;64015;49.392;15.582;2023-12-20T06:31:27;95232.06;;;3.21;100.00
75438;BME280;64015;49.392;15.582;2023-12-20T06:33:53;95239.31;;;3.19;100.00
75438;BME280;64015;49.392;15.582;2023-12-20T06:36:23;95246.25;;;3.14;100.00
75438;BME280;64015;49.392;15.582;2023-12-20T06:38:52;95236.75;;;3.08;100.00
75438;BME280;64015;49.392;15.582;2023-12-20T06:41:21;95242.44;;;3.05;100.00
75438;BME280;64015;49.392;15.582;2023-12-20T06:43:49;95236.56;;;2.97;100.00
75438;BME280;64015;49.392;15.582;2023-12-20T06:46:15;95250.63;;;2.96;100.00
75438;BME280;64015;49.392;15.582;2023-12-20T06:48:42;95253.13;;;2.91;100.00
75438;BME280;64015;49.392;15.582;2023-12-20T06:51:14;95261.72;;;2.92;100.00
75438;BME280;64015;49.392;15.582;2023-12-20T06:53:40;95259.34;;;2.90;100.00
75438;BME280;64015;49.392;15.582;2023-12-20T06:56:06;95266.72;;;2.93;100.00
75438;BME280;64015;49.392;15.582;2023-12-20T06:58:32;95246.59;;;2.77;100.00
75438;BME280;64015;49.392;15.582;2023-12-20T07:00:58;95253.38;;;2.78;100.00
75438;BME280;64015;49.392;15.582;2023-12-20T07:03:24;95259.16;;;2.80;100.00
75438;BME280;64015;49.392;15.582;2023-12-20T07:05:50;95263.69;;;2.73;100.00
75438;BME280;64015;49.392;15.582;2023-12-20T07:08:15;95251.91;;;2.71;100.00
75438;BME280;64015;49.392;15.582;2023-12-20T07:10:41;95250.59;;;2.68;100.00
75438;BME280;64015;49.392;15.582;2023-12-20T07:13:07;95277.97;;;2.71;100.00
75438;BME280;64015;49.392;15.582;2023-12-20T07:15:33;95281.72;;;2.63;100.00
75438;BME280;64015;49.392;15.582;2023-12-20T07:17:59;95268.59;;;2.58;100.00
75438;BME280;64015;49.392;15.582;2023-12-20T07:20:26;95263.72;;;2.61;100.00
75438;BME280;64015;49.392;15.582;2023-12-20T07:22:51;95269.63;;;2.57;100.00
75438;BME280;64015;49.392;15.582;2023-12-20T07:25:17;95284.31;;;2.63;100.00
75438;BME280;64015;49.392;15.582;2023-12-20T07:27:43;95288.97;;;2.61;100.00
75438;BME280;64015;49.392;15.582;2023-12-20T07:30:10;95272.59;;;2.49;100.00
75438;BME280;64015;49.392;15.582;2023-12-20T07:32:36;95281.63;;;2.46;100.00
75438;BME280;64015;49.392;15.582;2023-12-20T07:35:02;95274.03;;;2.45;100.00
75438;BME280;64015;49.392;15.582;2023-12-20T07:37:28;95278.91;;;2.41;100.00
75438;BME280;64015;49.392;15.582;2023-12-20T07:39:54;95278.59;;;2.38;100.00
75438;BME280;64015;49.392;15.582;2023-12-20T07:42:19;95297.47;;;2.45;100.00
75438;BME280;64015;49.392;15.582;2023-12-20T07:44:47;95275.31;;;2.31;100.00
75438;BME280;64015;49.392;15.582;2023-12-20T07:47:13;95294.50;;;2.41;100.00
75438;BME280;64015;49.392;15.582;2023-12-20T07:49:42;95304.47;;;2.44;100.00
75438;BME280;64015;49.392;15.582;2023-12-20T07:52:08;95307.22;;;2.38;100.00
75438;BME280;64015;49.392;15.582;2023-12-20T07:54:35;95313.31;;;2.43;100.00
75438;BME280;64015;49.392;15.582;2023-12-20T07:57:00;95312.50;;;2.43;100.00
75438;BME280;64015;49.392;15.582;2023-12-20T07:59:26;95309.69;;;2.33;100.00
75438;BME280;64015;49.392;15.582;2023-12-20T08:01:52;95322.25;;;2.36;100.00
75438;BME280;64015;49.392;15.582;2023-12-20T08:04:18;95307.78;;;2.28;100.00
75438;BME280;64015;49.392;15.582;2023-12-20T08:06:43;95322.59;;;2.39;100.00
75438;BME280;64015;49.392;15.582;2023-12-20T08:09:10;95311.97;;;2.29;100.00
75438;BME280;64015;49.392;15.582;2023-12-20T08:11:36;95311.16;;;2.29;100.00
75438;BME280;64015;49.392;15.582;2023-12-20T08:14:05;95314.34;;;2.31;100.00
75438;BME280;64015;49.392;15.582;2023-12-20T08:16:30;95314.34;;;2.31;100.00
75438;BME280;64015;49.392;15.582;2023-12-20T08:18:56;95325.66;;;2.36;100.00
75438;BME280;64015;49.392;15.582;2023-12-20T08:21:40;95311.41;;;2.27;100.00
75438;BME280;64015;49.392;15.582;2023-12-20T08:24:21;95323.16;;;2.30;100.00
75438;BME280;64015;49.392;15.582;2023-12-20T08:26:47;95337.28;;;2.34;100.00
75438;BME280;64015;49.392;15.582;2023-12-20T08:29:13;95353.72;;;2.46;100.00
75438;BME280;64015;49.392;15.582;2023-12-20T08:31:39;95350.75;;;2.42;100.00
75438;BME280;64015;49.392;15.582;2023-12-20T08:34:05;95354.16;;;2.43;100.00
75438;BME280;64015;49.392;15.582;2023-12-20T08:36:31;95367.66;;;2.40;100.00
75438;BME280;64015;49.392;15.582;2023-12-20T08:38:56;95340.59;;;2.41;100.00
75438;BME280;64015;49.392;15.582;2023-12-20T08:41:22;95341.72;;;2.33;100.00
75438;BME280;64015;49.392;15.582;2023-12-20T08:43:48;95355.66;;;2.39;100.00
75438;BME280;64015;49.392;15.582;2023-12-20T08:46:14;95351.78;;;2.41;100.00
75438;BME280;64015;49.392;15.582;2023-12-20T08:48:40;95362.88;;;2.37;100.00
75438;BME280;64015;49.392;15.582;2023-12-20T08:51:06;95352.69;;;2.35;100.00
75438;BME280;64015;49.392;15.582;2023-12-20T08:53:33;95356.09;;;2.36;100.00
75438;BME280;64015;49.392;15.582;2023-12-20T08:55:59;95358.94;;;2.46;100.00
75438;BME280;64015;49.392;15.582;2023-12-20T08:58:27;95395.94;;;2.48;100.00
75438;BME280;64015;49.392;15.582;2023-12-20T09:00:56;95370.56;;;2.43;100.00
75438;BME280;64015;49.392;15.582;2023-12-20T09:03:22;95378.41;;;2.55;100.00
75438;BME280;64015;49.392;15.582;2023-12-20T09:05:48;95372.03;;;2.51;100.00
75438;BME280;64015;49.392;15.582;2023-12-20T09:08:14;95379.06;;;2.50;100.00
75438;BME280;64015;49.392;15.582;2023-12-20T09:10:40;95377.59;;;2.43;100.00
75438;BME280;64015;49.392;15.582;2023-12-20T09:13:14;95374.19;;;2.42;100.00
75438;BME280;64015;49.392;15.582;2023-12-20T09:15:50;95355.97;;;2.31;100.00
75438;BME280;64015;49.392;15.582;2023-12-20T09:18:21;95372.50;;;2.36;100.00
75438;BME280;64015;49.392;15.582;2023-12-20T09:20:50;95361.44;;;2.41;100.00
75438;BME280;64015;49.392;15.582;2023-12-20T09:23:15;95363.56;;;2.44;100.00
75438;BME280;64015;49.392;15.582;2023-12-20T09:25:42;95378.16;;;2.45;100.00
75438;BME280;64015;49.392;15.582;2023-12-20T09:28:08;95363.69;;;2.49;100.00
75438;BME280;64015;49.392;15.582;2023-12-20T09:30:34;95364.81;;;2.53;100.00
75438;BME280;64015;49.392;15.582;2023-12-20T09:33:03;95368.09;;;2.60;100.00
75438;BME280;64015;49.392;15.582;2023-12-20T09:35:29;95365.03;;;2.63;100.00
75438;BME280;64015;49.392;15.582;2023-12-20T09:37:54;95384.94;;;2.81;100.00
75438;BME280;64015;49.392;15.582;2023-12-20T09:40:20;95357.44;;;2.85;100.00
75438;BME280;64015;49.392;15.582;2023-12-20T09:42:54;95371.22;;;2.97;100.00
75438;BME280;64015;49.392;15.582;2023-12-20T09:45:22;95356.75;;;2.89;100.00
75438;BME280;64015;49.392;15.582;2023-12-20T09:47:50;95368.66;;;2.85;100.00
75438;BME280;64015;49.392;15.582;2023-12-20T09:50:18;95381.91;;;2.95;100.00
75438;BME280;64015;49.392;15.582;2023-12-20T09:52:44;95368.06;;;2.95;100.00
75438;BME280;64015;49.392;15.582;2023-12-20T09:55:39;95378.81;;;2.98;100.00
75438;BME280;64015;49.392;15.582;2023-12-20T09:58:09;95376.34;;;3.04;100.00
75438;BME280;64015;49.392;15.582;2023-12-20T10:00:35;95342.34;;;2.98;100.00
75438;BME280;64015;49.392;15.582;2023-12-20T10:03:01;95354.75;;;3.20;100.00
75438;BME280;64015;49.392;15.582;2023-12-20T10:05:31;95362.88;;;3.35;100.00
75438;BME280;64015;49.392;15.582;2023-12-20T10:07:58;95335.06;;;3.24;100.00
75438;BME280;64015;49.392;15.582;2023-12-20T10:10:39;95359.63;;;3.28;100.00
75438;BME280;64015;49.392;15.582;2023-12-20T10:13:07;95352.16;;;3.20;100.00
75438;BME280;64015;49.392;15.582;2023-12-20T10:15:46;95337.34;;;3.09;100.00
75438;BME280;64015;49.392;15.582;2023-12-20T10:18:12;95326.69;;;3.10;100.00
75438;BME280;64015;49.392;15.582;2023-12-20T10:20:40;95337.47;;;3.14;100.00
75438;BME280;64015;49.392;15.582;2023-12-20T10:23:06;95342.41;;;3.15;100.00
75438;BME280;64015;49.392;15.582;2023-12-20T10:25:32;95340.06;;;3.14;100.00
75438;BME280;64015;49.392;15.582;2023-12-20T10:28:15;95331.09;;;3.21;100.00
75438;BME280;64015;49.392;15.582;2023-12-20T10:30:45;95337.28;;;3.32;100.00
75438;BME280;64015;49.392;15.582;2023-12-20T10:33:11;95360.53;;;3.33;100.00
75438;BME280;64015;49.392;15.582;2023-12-20T10:35:38;95352.34;;;3.42;100.00
75438;BME280;64015;49.392;15.582;2023-12-20T10:38:05;95337.78;;;3.46;100.00
75438;BME280;64015;49.392;15.582;2023-12-20T10:40:35;95353.41;;;3.57;100.00
75438;BME280;64015;49.392;15.582;2023-12-20T10:43:11;95338.59;;;3.46;100.00
75438;BME280;64015;49.392;15.582;2023-12-20T10:45:37;95334.94;;;3.47;100.00
75438;BME280;64015;49.392;15.582;2023-12-20T10:48:03;95333.66;;;3.33;100.00
75438;BME280;64015;49.392;15.582;2023-12-20T10:50:30;95349.84;;;3.35;100.00
75438;BME280;64015;49.392;15.582;2023-12-20T10:52:57;95335.72;;;3.19;100.00
75438;BME280;64015;49.392;15.582;2023-12-20T10:55:23;95334.16;;;3.07;100.00
75438;BME280;64015;49.392;15.582;2023-12-20T10:57:51;95366.34;;;3.00;100.00
75438;BME280;64015;49.392;15.582;2023-12-20T11:00:17;95363.97;;;3.11;100.00
75438;BME280;64015;49.392;15.582;2023-12-20T11:02:43;95332.50;;;2.89;100.00
75438;BME280;64015;49.392;15.582;2023-12-20T11:07:52;95359.47;;;2.94;100.00
75438;BME280;64015;49.392;15.582;2023-12-20T11:10:48;95343.34;;;2.97;100.00
75438;BME280;64015;49.392;15.582;2023-12-20T11:16:13;95311.88;;;2.99;100.00
75438;BME280;64015;49.392;15.582;2023-12-20T11:18:40;95337.47;;;3.14;100.00
75438;BME280;64015;49.392;15.582;2023-12-20T11:21:06;95336.97;;;3.17;100.00
75438;BME280;64015;49.392;15.582;2023-12-20T11:23:32;95339.63;;;3.05;100.00
75438;BME280;64015;49.392;15.582;2023-12-20T11:26:01;95325.00;;;3.04;100.00
75438;BME280;64015;49.392;15.582;2023-12-20T11:28:27;95317.56;;;2.96;100.00
75438;BME280;64015;49.392;15.582;2023-12-20T11:30:55;95328.63;;;3.15;100.00
75438;BME280;64015;49.392;15.582;2023-12-20T11:33:36;95327.03;;;3.14;100.00
75438;BME280;64015;49.392;15.582;2023-12-20T11:36:02;95303.19;;;2.93;100.00
75438;BME280;64015;49.392;15.582;2023-12-20T11:38:37;95321.50;;;2.98;100.00
75438;BME280;64015;49.392;15.582;2023-12-20T11:41:05;95323.09;;;2.99;100.00
75438;BME280;64015;49.392;15.582;2023-12-20T11:43:39;95311.56;;;2.95;100.00
75438;BME280;64015;49.392;15.582;2023-12-20T11:46:09;95299.22;;;2.91;100.00
75438;BME280;64015;49.392;15.582;2023-12-20T11:48:38;95292.31;;;2.96;100.00
75438;BME280;64015;49.392;15.582;2023-12-20T11:51:13;95304.63;;;3.01;100.00
75438;BME280;64015;49.392;15.582;2023-12-20T11:53:39;95296.81;;;3.01;100.00
75438;BME280;64015;49.392;15.582;2023-12-20T11:56:06;95286.03;;;2.97;100.00
75438;BME280;64015;49.392;15.582;2023-12-20T11:58:33;95304.81;;;3.11;100.00
75438;BME280;64015;49.392;15.582;2023-12-20T12:01:03;95322.50;;;3.09;100.00
75438;BME280;64015;49.392;15.582;2023-12-20T12:03:30;95277.31;;;3.04;100.00
75438;BME280;64015;49.392;15.582;2023-12-20T12:05:56;95273.81;;;2.98;100.00
75438;BME280;64015;49.392;15.582;2023-12-20T12:08:22;95257.66;;;2.96;100.00
75438;BME280;64015;49.392;15.582;2023-12-20T12:10:52;95278.16;;;2.92;100.00
75438;BME280;64015;49.392;15.582;2023-12-20T12:13:33;95298.97;;;3.04;100.00
75438;BME280;64015;49.392;15.582;2023-12-20T12:16:17;95292.16;;;3.03;100.00
75438;BME280;64015;49.392;15.582;2023-12-20T12:18:43;95292.31;;;2.96;100.00
75438;BME280;64015;49.392;15.582;2023-12-20T12:21:09;95301.13;;;2.95;100.00
75438;BME280;64015;49.392;15.582;2023-12-20T12:23:35;95296.25;;;2.99;100.00
75438;BME280;64015;49.392;15.582;2023-12-20T12:26:04;95302.59;;;2.91;100.00
75438;BME280;64015;49.392;15.582;2023-12-20T12:28:30;95296.84;;;2.89;100.00
75438;BME280;64015;49.392;15.582;2023-12-20T12:34:43;95305.66;;;3.00;100.00
75438;BME280;64015;49.392;15.582;2023-12-20T12:40:23;95315.94;;;3.07;100.00
75438;BME280;64015;49.392;15.582;2023-12-20T12:46:33;95283.53;;;3.14;100.00
75438;BME280;64015;49.392;15.582;2023-12-20T12:49:04;95341.97;;;3.18;100.00
75438;BME280;64015;49.392;15.582;2023-12-20T12:51:30;95294.59;;;3.21;100.00
75438;BME280;64015;49.392;15.582;2023-12-20T12:53:57;95298.38;;;3.14;100.00
75438;BME280;64015;49.392;15.582;2023-12-20T12:56:25;95293.34;;;3.24;100.00
75438;BME280;64015;49.392;15.582;2023-12-20T12:58:51;95277.25;;;3.15;100.00
75438;BME280;64015;49.392;15.582;2023-12-20T13:04:12;95276.44;;;3.26;100.00
75438;BME280;64015;49.392;15.582;2023-12-20T13:06:44;95253.34;;;3.18;100.00
75438;BME280;64015;49.392;15.582;2023-12-20T13:09:10;95266.22;;;3.25;100.00
75438;BME280;64015;49.392;15.582;2023-12-20T13:11:36;95261.94;;;3.30;100.00
75438;BME280;64015;49.392;15.582;2023-12-20T13:14:05;95257.66;;;3.24;100.00
75438;BME280;64015;49.392;15.582;2023-12-20T13:16:31;95264.56;;;3.19;100.00
75438;BME280;64015;49.392;15.582;2023-12-20T13:18:57;95289.25;;;3.28;100.00
75438;BME280;64015;49.392;15.582;2023-12-20T13:21:25;95262.91;;;3.13;100.00
75438;BME280;64015;49.392;15.582;2023-12-20T13:23:51;95283.19;;;3.11;100.00
75438;BME280;64015;49.392;15.582;2023-12-20T13:26:17;95264.78;;;2.89;100.00
75438;BME280;64015;49.392;15.582;2023-12-20T13:28:43;95293.06;;;2.97;100.00
75438;BME280;64015;49.392;15.582;2023-12-20T13:31:11;95275.69;;;2.74;100.00
75438;BME280;64015;49.392;15.582;2023-12-20T13:33:38;95261.69;;;2.63;100.00